Time;durP1;ratioP1;P1;durP2;ratioP2;P2;SDS_P1;SDS_P2;PMS_P1;PMS_P2;Temp;Humidity;BMP_temperature;BMP_pressure;BME280_temperature;BME280_humidity;BME280_pressure;Samples;Min_cycle;Max_cycle;Signal;HPM_P1;HPM_P2
2020/12/06 00:00:19;;;;;;;15.63;9.68;;;;;;;2.49;67.11;100272.81;5070910;28;20039;-92
2020/12/06 00:02:48;;;;;;;12.10;8.38;;;;;;;2.47;67.62;100271.97;5071144;28;20029;-92
2020/12/06 00:05:15;;;;;;;14.15;9.45;;;;;;;2.44;67.25;100282.41;5071081;28;20025;-92
2020/12/06 00:07:41;;;;;;;16.17;9.52;;;;;;;2.39;67.34;100297.19;5070827;28;20035;-92
2020/12/06 00:10:17;;;;;;;11.75;8.13;;;;;;;2.40;67.49;100297.19;5071398;28;20391;-92
2020/12/06 00:12:46;;;;;;;14.35;9.48;;;;;;;2.36;67.41;100294.59;5069956;28;20028;-92
2020/12/06 00:15:13;;;;;;;11.95;8.60;;;;;;;2.32;67.32;100300.63;5069914;28;20029;-92
2020/12/06 00:17:40;;;;;;;12.93;8.80;;;;;;;2.27;67.47;100308.47;5070544;28;20395;-91
2020/12/06 00:20:11;;;;;;;11.00;8.80;;;;;;;2.28;67.24;100307.63;5069515;28;20029;-92
2020/12/06 00:22:37;;;;;;;12.57;9.00;;;;;;;2.21;67.41;100314.53;5069634;28;20029;-92
2020/12/06 00:25:05;;;;;;;13.63;9.23;;;;;;;2.20;67.55;100310.16;5069890;28;20029;-92
2020/12/06 00:27:33;;;;;;;13.63;9.50;;;;;;;2.19;67.51;100308.41;5069181;28;20029;-92
2020/12/06 00:30:03;;;;;;;12.20;8.43;;;;;;;2.17;67.58;100299.72;5069513;28;20491;-91
2020/12/06 00:32:30;;;;;;;14.38;10.02;;;;;;;2.14;67.71;100294.44;5069393;28;20041;-92
2020/12/06 00:34:59;;;;;;;15.30;9.32;;;;;;;2.12;67.67;100292.69;5069179;28;20036;-92
2020/12/06 00:37:36;;;;;;;14.00;8.95;;;;;;;2.10;67.55;100285.72;5070051;28;20029;-92
2020/12/06 00:40:13;;;;;;;11.93;8.55;;;;;;;2.13;67.53;100287.50;5069250;28;20472;-92
2020/12/06 00:42:40;;;;;;;15.18;9.55;;;;;;;2.06;67.48;100278.72;5064242;28;20040;-91
2020/12/06 00:45:12;;;;;;;14.40;9.52;;;;;;;2.02;67.95;100284.81;5055894;28;20060;-91
2020/12/06 00:47:39;;;;;;;12.73;8.45;;;;;;;2.02;68.03;100289.16;5055520;28;20480;-90
2020/12/06 00:50:07;;;;;;;14.88;9.10;;;;;;;1.99;67.97;100289.16;5055703;28;20029;-91
2020/12/06 00:52:36;;;;;;;14.80;9.05;;;;;;;1.99;68.19;100281.31;5055823;28;20094;-90
2020/12/06 00:55:22;;;;;;;15.25;9.35;;;;;;;2.00;68.18;100290.91;5055737;28;20029;-90
2020/12/06 00:57:57;;;;;;;15.45;9.27;;;;;;;2.00;68.00;100296.13;5055616;28;20497;-90
2020/12/06 01:00:29;;;;;;;15.57;10.00;;;;;;;2.02;67.82;100284.81;5056891;28;20044;-90
2020/12/06 01:02:55;;;;;;;14.98;9.82;;;;;;;1.94;68.03;100290.00;5055958;28;20032;-89
2020/12/06 01:05:24;;;;;;;15.55;9.93;;;;;;;1.94;67.67;100282.16;5055420;28;20028;-91
2020/12/06 01:07:51;;;;;;;16.20;10.98;;;;;;;1.90;67.92;100282.13;5055585;28;20125;-90
2020/12/06 01:10:17;;;;;;;13.30;9.02;;;;;;;1.89;67.66;100280.38;5055436;28;20495;-91
2020/12/06 01:12:44;;;;;;;18.73;9.85;;;;;;;1.86;67.66;100296.03;5055641;28;20029;-89
2020/12/06 01:15:11;;;;;;;14.13;8.85;;;;;;;1.85;67.62;100302.13;5055485;28;20045;-89
2020/12/06 01:17:38;;;;;;;15.20;9.63;;;;;;;1.77;67.67;100294.25;5055172;28;20033;-89
2020/12/06 01:20:06;;;;;;;13.80;9.57;;;;;;;1.75;68.05;100286.38;5055387;28;20121;-89
2020/12/06 01:22:34;;;;;;;13.40;9.82;;;;;;;1.74;68.02;100286.38;5055329;28;20027;-91
2020/12/06 01:25:01;;;;;;;13.68;9.18;;;;;;;1.75;67.76;100288.13;5054855;28;20488;-89
2020/12/06 01:27:28;;;;;;;13.80;9.93;;;;;;;1.74;67.79;100283.75;5054873;28;20116;-89
2020/12/06 01:29:54;;;;;;;14.80;10.02;;;;;;;1.74;67.90;100284.63;5054962;28;20040;-88
2020/12/06 01:32:21;;;;;;;14.77;10.43;;;;;;;1.74;68.06;100286.38;5054994;28;20037;-89
2020/12/06 01:34:47;;;;;;;14.85;9.88;;;;;;;1.73;68.06;100287.22;5055209;28;20329;-88
2020/12/06 01:37:14;;;;;;;19.88;11.68;;;;;;;1.72;68.04;100290.69;5054719;28;20116;-89
2020/12/06 01:39:40;;;;;;;15.25;9.77;;;;;;;1.71;68.19;100281.13;5054979;28;20037;-88
2020/12/06 01:42:07;;;;;;;16.08;10.85;;;;;;;1.71;68.18;100283.75;5055098;28;20029;-88
2020/12/06 01:44:34;;;;;;;17.92;10.45;;;;;;;1.70;68.00;100288.09;5054785;28;20119;-89
2020/12/06 01:47:01;;;;;;;17.85;9.68;;;;;;;1.66;68.05;100280.19;5055284;28;20120;-88
2020/12/06 01:49:36;;;;;;;19.45;11.82;;;;;;;1.64;68.10;100289.78;5055034;28;20079;-88
2020/12/06 01:52:05;;;;;;;20.95;11.75;;;;;;;1.65;68.49;100300.22;5054217;28;20567;-88
2020/12/06 01:54:34;;;;;;;17.73;11.65;;;;;;;1.64;68.25;100300.22;5053846;28;20041;-89
2020/12/06 01:57:01;;;;;;;17.20;11.23;;;;;;;1.62;68.27;100302.84;5054605;28;20025;-88
2020/12/06 01:59:27;;;;;;;13.82;10.05;;;;;;;1.61;68.21;100309.78;5054656;28;20116;-88
2020/12/06 02:02:04;;;;;;;14.95;10.52;;;;;;;1.66;67.88;100317.66;5054550;28;20442;-88
2020/12/06 02:04:31;;;;;;;16.35;10.32;;;;;;;1.58;67.73;100314.09;5054268;28;20428;-89
2020/12/06 02:07:00;;;;;;;17.02;10.38;;;;;;;1.56;67.95;100319.31;5054389;28;20043;-88
2020/12/06 02:09:28;;;;;;;15.68;11.23;;;;;;;1.57;68.13;100334.13;5054854;28;20085;-88
2020/12/06 02:11:55;;;;;;;17.90;12.18;;;;;;;1.56;68.25;100326.28;5054475;28;20036;-88
2020/12/06 02:14:23;;;;;;;18.80;10.82;;;;;;;1.55;68.10;100325.41;5054232;28;20082;-88
2020/12/06 02:16:54;;;;;;;17.90;12.15;;;;;;;1.60;68.33;100334.13;5053786;28;20028;-88
2020/12/06 02:19:21;;;;;;;18.55;11.63;;;;;;;1.57;68.23;100331.50;5054138;28;20029;-88
2020/12/06 02:21:48;;;;;;;15.70;11.50;;;;;;;1.56;68.13;100327.16;5054267;28;20104;-88
2020/12/06 02:24:16;;;;;;;18.08;12.02;;;;;;;1.51;68.78;100318.41;5054309;28;20056;-88
2020/12/06 02:26:46;;;;;;;16.95;12.93;;;;;;;1.57;68.34;100331.50;5053967;28;20469;-88
2020/12/06 02:29:13;;;;;;;14.05;10.10;;;;;;;1.58;68.85;100334.97;5053945;28;20059;-88
2020/12/06 02:31:40;;;;;;;18.20;11.30;;;;;;;1.58;68.54;100332.38;5053730;28;20040;-88
2020/12/06 02:34:09;;;;;;;17.00;11.20;;;;;;;1.59;68.72;100339.34;5053904;28;20508;-88
2020/12/06 02:36:37;;;;;;;17.75;11.27;;;;;;;1.57;68.55;100334.13;5054246;28;20111;-87
2020/12/06 02:39:06;;;;;;;18.85;11.88;;;;;;;1.59;68.39;100329.78;5056267;28;20025;-87
2020/12/06 02:41:38;;;;;;;17.08;11.38;;;;;;;1.60;68.53;100334.13;5073197;28;20040;-89
2020/12/06 02:44:06;;;;;;;16.23;11.55;;;;;;;1.60;68.48;100328.91;5072000;28;20029;-86
2020/12/06 02:46:33;;;;;;;18.40;11.88;;;;;;;1.60;68.51;100328.91;5055617;28;20029;-87
2020/12/06 02:49:01;;;;;;;19.30;11.32;;;;;;;1.60;68.27;100333.28;5054245;28;20112;-88
2020/12/06 02:51:28;;;;;;;18.67;11.68;;;;;;;1.60;68.59;100323.69;5053436;28;20028;-88
2020/12/06 02:53:54;;;;;;;17.67;12.07;;;;;;;1.62;68.41;100321.13;5053507;28;20029;-88
2020/12/06 02:56:21;;;;;;;21.92;12.93;;;;;;;1.63;68.47;100320.22;5053563;28;20383;-88
2020/12/06 02:58:48;;;;;;;21.52;13.20;;;;;;;1.65;68.85;100320.25;5053295;28;20040;-88
2020/12/06 03:01:14;;;;;;;21.40;13.23;;;;;;;1.63;68.65;100317.63;5054054;28;20048;-88
2020/12/06 03:03:41;;;;;;;17.08;12.27;;;;;;;1.64;68.29;100313.28;5053372;28;20025;-88
2020/12/06 03:06:09;;;;;;;16.30;11.45;;;;;;;1.63;68.62;100307.16;5053068;28;20167;-88
2020/12/06 03:08:37;;;;;;;17.42;9.65;;;;;;;1.61;68.29;100312.38;5053178;28;20124;-88
2020/12/06 03:11:05;;;;;;;20.52;12.20;;;;;;;1.63;68.11;100307.16;5053161;28;20035;-88
2020/12/06 03:13:32;;;;;;;16.33;10.95;;;;;;;1.59;68.18;100311.50;5053593;28;20092;-89
2020/12/06 03:15:59;;;;;;;19.20;11.35;;;;;;;1.58;67.99;100306.25;5053311;28;20032;-88
2020/12/06 03:18:25;;;;;;;16.83;11.75;;;;;;;1.56;68.01;100303.66;5053332;28;20074;-88
2020/12/06 03:20:52;;;;;;;17.45;12.25;;;;;;;1.55;68.21;100309.72;5053366;28;20021;-89
2020/12/06 03:23:19;;;;;;;19.23;12.90;;;;;;;1.53;67.78;100310.56;5053207;28;20061;-88
2020/12/06 03:25:45;;;;;;;19.95;13.18;;;;;;;1.52;68.03;100304.50;5052967;28;20025;-88
2020/12/06 03:28:12;;;;;;;20.35;12.00;;;;;;;1.49;68.01;100309.69;5052786;28;20032;-88
2020/12/06 03:30:38;;;;;;;20.95;11.77;;;;;;;1.50;68.12;100316.66;5053053;28;20376;-88
2020/12/06 03:33:05;;;;;;;21.05;12.70;;;;;;;1.51;68.15;100326.25;5053476;28;20376;-89
2020/12/06 03:35:32;;;;;;;19.30;12.45;;;;;;;1.50;68.11;100314.03;5052967;28;20029;-88
2020/12/06 03:37:58;;;;;;;21.60;12.30;;;;;;;1.50;68.25;100311.44;5052705;28;20022;-88
2020/12/06 03:40:25;;;;;;;18.55;12.13;;;;;;;1.47;68.08;100311.41;5052760;28;20029;-88
2020/12/06 03:42:52;;;;;;;22.58;12.43;;;;;;;1.47;68.02;100311.41;5052582;28;20036;-88
2020/12/06 03:45:19;;;;;;;19.35;11.68;;;;;;;1.46;68.17;100301.84;5052848;28;20033;-89
2020/12/06 03:47:46;;;;;;;22.13;12.43;;;;;;;1.43;68.14;100310.50;5052790;28;20028;-89
2020/12/06 03:50:13;;;;;;;21.63;12.20;;;;;;;1.40;67.96;100304.38;5052870;28;20480;-89
2020/12/06 03:52:40;;;;;;;19.27;11.00;;;;;;;1.39;67.76;100308.72;5052642;28;20033;-88
2020/12/06 03:55:07;;;;;;;24.50;14.18;;;;;;;1.38;67.94;100309.56;5052639;28;20036;-88
2020/12/06 03:57:33;;;;;;;18.08;12.10;;;;;;;1.37;68.16;100305.25;5052992;28;20029;-88
2020/12/06 04:00:00;;;;;;;22.20;13.55;;;;;;;1.36;68.19;100300.88;5052695;28;20025;-88
2020/12/06 04:02:26;;;;;;;19.00;11.90;;;;;;;1.33;68.50;100313.00;5052641;28;20387;-88
2020/12/06 04:04:53;;;;;;;20.33;13.32;;;;;;;1.32;68.33;100316.47;5052787;28;20083;-89
2020/12/06 04:07:20;;;;;;;22.85;13.65;;;;;;;1.31;68.58;100312.13;5052799;28;20383;-88
2020/12/06 04:09:46;;;;;;;23.63;13.30;;;;;;;1.29;68.02;100305.16;5052515;28;20035;-89
2020/12/06 04:12:13;;;;;;;22.70;12.70;;;;;;;1.28;68.22;100302.53;5052969;28;20093;-89
2020/12/06 04:14:39;;;;;;;24.17;13.38;;;;;;;1.27;68.62;100306.88;5052672;28;20078;-89
2020/12/06 04:17:06;;;;;;;23.05;13.88;;;;;;;1.29;68.87;100312.97;5052565;28;20053;-89
2020/12/06 04:19:33;;;;;;;23.02;14.60;;;;;;;1.31;68.67;100314.72;5056285;28;20036;-89
2020/12/06 04:21:59;;;;;;;25.90;15.10;;;;;;;1.33;68.76;100320.84;5056383;28;20022;-89
2020/12/06 04:24:26;;;;;;;21.38;13.13;;;;;;;1.32;68.99;100326.91;5056484;28;20025;-89
2020/12/06 04:26:52;;;;;;;24.08;14.60;;;;;;;1.31;68.84;100325.16;5056072;28;20033;-89
2020/12/06 04:29:19;;;;;;;21.38;12.90;;;;;;;1.31;68.71;100320.84;5056022;28;20020;-89
2020/12/06 04:31:45;;;;;;;27.00;14.82;;;;;;;1.31;69.01;100320.84;5055823;28;20380;-89
2020/12/06 04:34:12;;;;;;;21.95;13.80;;;;;;;1.30;68.75;100319.09;5056342;28;20116;-89
2020/12/06 04:36:38;;;;;;;22.42;13.15;;;;;;;1.31;68.78;100320.84;5056155;28;20091;-89
2020/12/06 04:39:05;;;;;;;20.98;12.40;;;;;;;1.29;68.77;100323.41;5056023;28;20067;-89
2020/12/06 04:41:32;;;;;;;21.75;14.52;;;;;;;1.31;68.53;100319.94;5059380;28;20124;-89
2020/12/06 04:43:58;;;;;;;18.70;12.02;;;;;;;1.33;68.87;100326.06;5056286;28;20441;-89
2020/12/06 04:46:28;;;;;;;19.67;12.60;;;;;;;1.36;68.96;100318.25;5056379;28;20037;-89
2020/12/06 04:49:25;;;;;;;22.33;13.48;;;;;;;1.44;68.85;100320.06;5055863;28;20435;-89
2020/12/06 04:51:56;;;;;;;27.55;16.27;;;;;;;1.41;69.10;100327.03;5055455;28;20474;-89
2020/12/06 04:54:31;;;;;;;23.85;14.75;;;;;;;1.42;69.25;100331.34;5055624;28;20029;-89
2020/12/06 04:57:02;;;;;;;29.77;15.55;;;;;;;1.43;69.07;100327.91;5055512;28;20024;-89
2020/12/06 04:59:29;;;;;;;29.20;15.60;;;;;;;1.42;69.33;100331.34;5055425;28;20021;-89
2020/12/06 05:02:04;;;;;;;28.67;15.80;;;;;;;1.43;69.33;100326.19;5055460;28;20594;-89
2020/12/06 05:04:34;;;;;;;25.73;15.95;;;;;;;1.45;69.35;100319.22;5055926;28;20033;-89
2020/12/06 05:07:02;;;;;;;28.17;15.48;;;;;;;1.45;69.19;100326.19;5055702;28;20086;-89
2020/12/06 05:09:33;;;;;;;25.13;14.75;;;;;;;1.47;69.25;100316.63;5055347;28;20025;-89
2020/12/06 05:12:02;;;;;;;29.67;17.05;;;;;;;1.51;69.15;100321.00;5055241;28;20068;-89
2020/12/06 05:14:29;;;;;;;26.75;15.60;;;;;;;1.52;69.21;100322.78;5055165;28;20067;-89
2020/12/06 05:16:57;;;;;;;25.73;14.95;;;;;;;1.53;69.38;100321.88;5055584;28;20034;-89
2020/12/06 05:19:25;;;;;;;25.30;14.30;;;;;;;1.56;69.13;100316.69;5055176;28;20067;-89
2020/12/06 05:21:53;;;;;;;26.55;16.73;;;;;;;1.55;69.44;100314.94;5055252;28;20029;-89
2020/12/06 05:24:20;;;;;;;25.05;15.30;;;;;;;1.53;69.31;100316.66;5055088;28;20058;-89
2020/12/06 05:26:47;;;;;;;30.27;16.35;;;;;;;1.54;69.03;100326.25;5054993;28;20118;-89
2020/12/06 05:29:14;;;;;;;25.33;15.63;;;;;;;1.56;69.30;100321.06;5054991;28;20059;-89
2020/12/06 05:31:41;;;;;;;22.05;14.13;;;;;;;1.56;69.31;100321.94;5054928;28;20036;-89
2020/12/06 05:34:07;;;;;;;25.50;15.73;;;;;;;1.59;68.91;100323.69;5054988;28;20361;-89
2020/12/06 05:36:34;;;;;;;24.50;15.77;;;;;;;1.61;69.13;100325.44;5054890;28;20131;-89
2020/12/06 05:39:00;;;;;;;33.45;17.45;;;;;;;1.63;69.53;100329.81;5054987;28;20490;-89
2020/12/06 05:41:27;;;;;;;29.10;17.20;;;;;;;1.65;69.30;100334.19;5054760;28;20021;-89
2020/12/06 05:43:53;;;;;;;28.98;17.42;;;;;;;1.67;69.28;100326.34;5054986;28;20029;-89
2020/12/06 05:46:19;;;;;;;28.83;17.55;;;;;;;1.69;69.48;100327.25;5054772;28;20037;-89
2020/12/06 05:48:46;;;;;;;31.35;18.35;;;;;;;1.71;69.47;100331.63;5054868;28;20112;-88
2020/12/06 05:51:14;;;;;;;30.50;18.77;;;;;;;1.74;69.67;100330.78;5054708;28;20033;-89
2020/12/06 05:53:41;;;;;;;29.25;17.80;;;;;;;1.77;69.43;100338.66;5054562;28;20488;-88
2020/12/06 05:56:22;;;;;;;35.90;20.65;;;;;;;1.89;69.70;100330.00;5054902;28;20095;-89
2020/12/06 05:58:51;;;;;;;27.73;18.13;;;;;;;1.86;69.70;100340.44;5054413;28;20029;-89
2020/12/06 06:01:19;;;;;;;32.75;18.92;;;;;;;1.88;69.91;100342.22;5054590;28;20040;-89
2020/12/06 06:03:53;;;;;;;34.45;20.98;;;;;;;1.99;69.70;100337.03;5054608;28;20044;-89
2020/12/06 06:06:42;;;;;;;30.05;17.85;;;;;;;1.99;69.94;100344.03;5054098;28;20029;-89
2020/12/06 06:09:15;;;;;;;29.75;18.50;;;;;;;2.00;69.73;100344.03;5054154;28;20041;-88
2020/12/06 06:11:54;;;;;;;32.50;18.15;;;;;;;2.04;69.74;100331.84;5054328;28;20032;-89
2020/12/06 06:14:22;;;;;;;30.98;17.80;;;;;;;2.03;69.80;100335.31;5053953;28;20021;-89
2020/12/06 06:16:51;;;;;;;32.95;19.08;;;;;;;2.05;69.82;100323.16;5054511;28;20032;-89
2020/12/06 06:19:22;;;;;;;33.17;20.38;;;;;;;2.13;69.87;100323.19;5053853;28;20387;-90
2020/12/06 06:21:49;;;;;;;33.38;19.33;;;;;;;2.12;69.90;100327.56;5054122;28;20468;-89
2020/12/06 06:24:25;;;;;;;34.50;19.92;;;;;;;2.23;69.73;100325.00;5053937;28;20029;-90
2020/12/06 06:26:54;;;;;;;38.20;20.52;;;;;;;2.22;69.96;100328.50;5053868;28;20064;-89
2020/12/06 06:29:21;;;;;;;32.05;18.90;;;;;;;2.25;70.10;100325.88;5053784;28;20064;-89
2020/12/06 06:31:51;;;;;;;32.58;18.02;;;;;;;2.28;70.20;100323.31;5053945;28;20499;-89
2020/12/06 06:34:28;;;;;;;29.83;18.65;;;;;;;2.28;70.07;100328.53;5053565;28;20111;-89
2020/12/06 06:36:54;;;;;;;36.33;20.30;;;;;;;2.34;70.11;100327.69;5053981;28;20490;-89
2020/12/06 06:39:23;;;;;;;38.63;21.70;;;;;;;2.37;69.97;100312.88;5053655;28;20156;-89
2020/12/06 06:42:09;;;;;;;32.95;20.00;;;;;;;2.47;70.09;100324.25;5053197;28;20017;-90
2020/12/06 06:44:39;;;;;;;33.78;21.15;;;;;;;2.43;70.10;100320.75;5053189;28;20024;-89
2020/12/06 06:47:07;;;;;;;35.25;20.02;;;;;;;2.43;69.96;100323.38;5053695;28;20095;-90
2020/12/06 06:52:47;;;;;;;40.58;26.50;;;;;;;2.16;72.12;100331.94;5089380;27;20421;-89
2020/12/06 06:55:13;;;;;;;37.78;24.05;;;;;;;2.48;71.01;100331.25;5090795;28;20119;-89
2020/12/06 06:57:41;;;;;;;37.05;21.33;;;;;;;2.56;70.40;100334.75;5090910;28;20081;-88
2020/12/06 07:00:07;;;;;;;33.38;20.13;;;;;;;2.57;70.56;100331.28;5090704;28;20478;-89
2020/12/06 07:02:37;;;;;;;32.08;18.52;;;;;;;2.64;70.36;100333.91;5105266;28;20074;-89
2020/12/06 07:08:11;;;;;;;28.98;17.92;;;;;;;2.68;70.17;100326.09;5082205;27;20377;-89
2020/12/06 07:10:40;;;;;;;27.75;17.50;;;;;;;2.66;70.16;100334.81;5071058;28;20037;-89
2020/12/06 07:13:07;;;;;;;33.78;19.98;;;;;;;2.64;70.35;100336.53;5070704;28;20025;-89
2020/12/06 07:15:34;;;;;;;35.90;19.00;;;;;;;2.66;70.06;100330.44;5070482;28;20492;-90
2020/12/06 07:18:01;;;;;;;34.65;19.73;;;;;;;2.67;70.21;100329.56;5070530;28;20029;-89
2020/12/06 07:20:29;;;;;;;32.47;18.00;;;;;;;2.69;70.37;100335.69;5070987;28;20039;-89
2020/12/06 07:22:56;;;;;;;36.13;20.25;;;;;;;2.71;70.42;100336.56;5070686;28;20422;-89
2020/12/06 07:25:24;;;;;;;36.45;20.65;;;;;;;2.76;70.15;100333.97;5069916;28;20358;-89
2020/12/06 07:27:50;;;;;;;30.73;17.55;;;;;;;2.75;70.06;100333.13;5070645;28;20143;-89
2020/12/06 07:30:19;;;;;;;34.65;19.83;;;;;;;2.77;70.18;100335.72;5070241;28;20108;-89
2020/12/06 07:32:45;;;;;;;36.88;20.40;;;;;;;2.78;70.16;100340.09;5070106;28;20040;-89
2020/12/06 07:35:14;;;;;;;29.35;18.23;;;;;;;2.80;70.11;100340.97;5070223;28;20063;-89
2020/12/06 07:37:41;;;;;;;31.77;18.55;;;;;;;2.80;70.28;100333.09;5069872;28;20044;-89
2020/12/06 07:40:10;;;;;;;32.20;19.05;;;;;;;2.81;70.19;100331.38;5069736;28;20032;-89
2020/12/06 07:42:37;;;;;;;34.05;20.00;;;;;;;2.82;70.17;100334.00;5069865;28;20430;-90
2020/12/06 07:45:06;;;;;;;34.20;20.75;;;;;;;2.83;69.82;100338.38;5070028;28;20494;-90
2020/12/06 07:47:33;;;;;;;35.30;20.52;;;;;;;2.82;70.01;100334.00;5069814;28;20163;-89
2020/12/06 07:50:01;;;;;;;34.92;19.80;;;;;;;2.83;70.28;100337.47;5069937;28;20111;-89
2020/12/06 07:52:29;;;;;;;35.63;21.00;;;;;;;2.86;70.21;100347.97;5069611;28;20025;-89
2020/12/06 07:55:06;;;;;;;34.28;21.05;;;;;;;2.88;69.90;100336.63;5069211;28;20036;-90
2020/12/06 08:00:17;;;;;;;32.00;18.85;;;;;;;2.90;69.97;100340.13;5082917;27;21011;-90
2020/12/06 08:02:49;;;;;;;30.08;18.73;;;;;;;2.96;70.10;100333.19;5050564;28;20091;-90
2020/12/06 08:05:21;;;;;;;38.53;22.05;;;;;;;3.01;70.24;100326.22;5050419;28;20084;-91
2020/12/06 08:07:55;;;;;;;31.98;19.52;;;;;;;3.03;70.06;100324.47;5050882;28;20473;-89
2020/12/06 08:10:22;;;;;;;36.72;21.30;;;;;;;3.03;70.11;100321.88;5052338;28;20029;-89
2020/12/06 08:12:52;;;;;;;30.98;20.08;;;;;;;3.07;70.02;100319.22;5051086;28;20033;-89
2020/12/06 08:15:22;;;;;;;35.40;20.30;;;;;;;3.06;70.00;100314.84;5050286;28;20034;-89
2020/12/06 08:17:50;;;;;;;32.33;19.85;;;;;;;3.10;70.41;100313.13;5050206;28;20416;-91
2020/12/06 08:20:19;;;;;;;35.85;21.23;;;;;;;3.14;70.05;100312.28;5049994;28;20029;-89
2020/12/06 08:22:49;;;;;;;35.75;21.95;;;;;;;3.17;70.35;100309.66;5050069;28;20034;-89
2020/12/06 08:25:15;;;;;;;34.95;21.83;;;;;;;3.20;70.25;100317.53;5050028;28;20021;-89
2020/12/06 08:27:44;;;;;;;38.42;22.30;;;;;;;3.26;69.98;100326.25;5050078;28;20036;-89
2020/12/06 08:30:13;;;;;;;40.55;23.85;;;;;;;3.30;70.23;100338.47;5050613;28;20056;-89
2020/12/06 08:32:40;;;;;;;34.22;21.20;;;;;;;3.32;70.41;100342.84;5049917;28;20079;-90
2020/12/06 08:35:06;;;;;;;35.53;22.30;;;;;;;3.38;69.87;100336.75;5050076;28;20494;-90
2020/12/06 08:37:34;;;;;;;34.97;22.38;;;;;;;3.42;70.47;100337.63;5049881;28;20164;-90
2020/12/06 08:40:03;;;;;;;35.97;23.23;;;;;;;3.45;70.08;100341.13;5051117;28;20037;-90
2020/12/06 08:42:30;;;;;;;35.70;21.58;;;;;;;3.48;69.78;100333.25;5049726;28;20028;-90
2020/12/06 08:44:59;;;;;;;38.45;22.48;;;;;;;3.51;70.25;100333.25;5049508;28;20029;-91
2020/12/06 08:47:46;;;;;;;33.58;21.80;;;;;;;3.56;69.82;100336.78;5049691;28;20025;-91
2020/12/06 08:50:17;;;;;;;38.42;21.95;;;;;;;3.61;69.86;100338.50;5049639;28;20192;-90
2020/12/06 08:52:44;;;;;;;35.83;22.48;;;;;;;3.64;70.32;100333.25;5049282;28;20542;-91
2020/12/06 08:55:36;;;;;;;34.30;20.85;;;;;;;3.75;69.77;100331.53;5049374;28;20026;-90
2020/12/06 08:58:03;;;;;;;34.83;21.63;;;;;;;3.72;69.86;100323.66;5049066;28;20527;-91
2020/12/06 09:00:30;;;;;;;31.25;19.80;;;;;;;3.73;70.30;100333.28;5049916;28;20480;-91
2020/12/06 09:02:59;;;;;;;36.75;22.98;;;;;;;3.80;70.38;100324.56;5049490;28;20067;-91
2020/12/06 09:05:28;;;;;;;38.28;22.25;;;;;;;3.84;70.20;100334.16;5049316;28;20025;-91
2020/12/06 09:08:06;;;;;;;39.97;21.10;;;;;;;3.86;69.82;100332.41;5049045;28;20495;-91
2020/12/06 09:10:33;;;;;;;33.92;22.38;;;;;;;3.86;70.01;100324.53;5041570;28;20475;-91
2020/12/06 09:13:10;;;;;;;32.92;21.27;;;;;;;3.87;69.99;100321.03;5035932;28;20477;-91
2020/12/06 09:16:02;;;;;;;35.63;21.65;;;;;;;4.00;70.01;100318.38;5036143;28;20079;-91
2020/12/06 09:18:34;;;;;;;33.92;21.83;;;;;;;3.98;70.04;100321.03;5014853;28;20666;-92
2020/12/06 09:21:03;;;;;;;29.05;19.63;;;;;;;4.03;69.43;100326.25;5036226;28;20036;-91
2020/12/06 09:23:32;;;;;;;33.97;20.45;;;;;;;4.06;69.85;100323.63;5035586;28;20026;-92
2020/12/06 09:26:09;;;;;;;33.22;20.75;;;;;;;4.11;69.60;100321.91;5036244;28;20033;-92
2020/12/06 09:29:11;;;;;;;31.67;20.67;;;;;;;4.20;69.16;100324.47;5035679;28;20449;-92
2020/12/06 09:32:12;;;;;;;28.83;19.77;;;;;;;4.27;69.54;100329.72;5033857;28;20045;-92
2020/12/06 09:35:21;;;;;;;28.73;19.40;;;;;;;4.32;69.17;100333.19;5034381;28;20026;-92
2020/12/06 09:38:48;;;;;;;34.35;20.88;;;;;;;4.35;68.88;100331.44;5035007;28;20030;-92
2020/12/06 09:41:57;;;;;;;31.83;19.90;;;;;;;4.41;68.88;100333.19;5000700;28;20404;-93
2020/12/06 09:49:09;;;;;;;33.00;19.85;;;;;;;4.52;68.88;100326.16;5116518;23;20050;-91
2020/12/06 11:30:37;;;;;;;34.42;22.95;;;;;;;5.97;68.89;100307.69;4962229;28;20038;-95
2020/12/06 11:33:46;;;;;;;31.63;21.02;;;;;;;5.99;69.25;100308.56;4981061;28;20070;-94
2020/12/06 11:42:26;;;;;;;37.70;22.08;;;;;;;6.03;69.78;100291.00;5248543;22;19925;-92
2020/12/06 11:45:08;;;;;;;41.05;21.67;;;;;;;5.98;69.90;100293.63;5042707;28;20038;-94
2020/12/06 11:47:37;;;;;;;37.33;21.27;;;;;;;5.95;70.02;100298.94;5063314;28;20037;-94
2020/12/06 11:50:32;;;;;;;30.75;19.80;;;;;;;6.03;69.61;100294.53;5062460;28;20127;-92
2020/12/06 11:53:40;;;;;;;;;;;;;;;;;;;;;
2020/12/06 11:57:11;;;;;;;30.58;19.77;;;;;;;6.05;69.76;100308.50;5027189;28;20096;-95
2020/12/06 12:00:59;;;;;;;34.60;22.40;;;;;;;6.02;69.75;100320.81;5023808;28;20085;-95
2020/12/06 12:10:39;;;;;;;46.03;26.90;;;;;;;6.02;69.60;100326.97;4987402;28;20531;-94
2020/12/06 12:13:27;;;;;;;37.90;23.50;;;;;;;6.03;69.75;100323.44;5010879;28;20048;-95
2020/12/06 12:22:07;;;;;;;36.35;22.65;;;;;;;6.06;69.09;100291.00;4919926;29;20056;-95
2020/12/06 12:25:28;;;;;;;37.17;23.30;;;;;;;5.99;69.54;100282.28;5000547;28;20038;-92
2020/12/06 12:28:33;;;;;;;34.00;21.92;;;;;;;6.08;69.21;100287.47;5032441;22;20455;-92
2020/12/06 12:31:28;;;;;;;36.50;22.33;;;;;;;6.02;69.63;100277.00;4998679;28;20093;-95
2020/12/06 12:34:42;;;;;;;36.40;22.48;;;;;;;6.05;69.53;100269.06;5053470;28;20091;-92
2020/12/06 12:36:54;;;;;;;36.05;22.27;;;;;;;6.01;69.43;100277.88;5044780;28;20060;-95
2020/12/06 12:40:22;;;;;;;;;;;;;;;;;;;;;
2020/12/06 12:43:52;;;;;;;38.90;23.40;;;;;;;6.08;68.62;100268.16;4974454;28;20043;-92
2020/12/06 12:50:25;;;;;;;39.80;24.42;;;;;;;6.04;68.36;100267.31;5018579;28;20044;-95
2020/12/06 12:57:47;;;;;;;37.70;22.75;;;;;;;6.13;68.58;100271.59;4912314;29;20064;-95
2020/12/06 13:00:34;;;;;;;36.92;22.63;;;;;;;6.02;68.89;100273.47;4962205;28;20449;-96
2020/12/06 13:03:23;;;;;;;;;;;;;;;;;;;;;
2020/12/06 13:06:25;;;;;;;35.30;22.30;;;;;;;6.07;68.09;100272.56;5020123;28;20101;-95
2020/12/06 13:08:58;;;;;;;35.63;22.55;;;;;;;6.03;68.48;100265.59;5183838;22;20057;-95
2020/12/06 13:12:17;;;;;;;33.78;22.48;;;;;;;6.09;68.08;100257.66;5061643;28;20030;-91
2020/12/06 13:14:54;;;;;;;34.55;22.40;;;;;;;6.09;68.42;100251.50;5034580;28;20064;-95
2020/12/06 13:19:46;;;;;;;34.78;20.75;;;;;;;6.17;68.03;100256.66;5061765;28;20025;-95
2020/12/06 13:22:24;;;;;;;35.83;22.52;;;;;;;6.07;68.05;100251.50;4975138;28;20101;-95
2020/12/06 13:25:22;;;;;;;;;;;;;;;;;;;;;
2020/12/06 13:28:27;;;;;;;;;;;;;;;;;;;;;
2020/12/06 13:31:47;;;;;;;39.70;23.60;;;;;;;6.13;68.24;100245.31;4989577;28;20044;-94
2020/12/06 13:34:57;;;;;;;42.28;24.40;;;;;;;6.17;68.11;100254.91;5046012;28;20060;-95
2020/12/06 13:42:08;;;;;;;41.90;24.40;;;;;;;6.15;68.29;100267.22;4961780;28;20553;-96
2020/12/06 13:43:56;;;;;;;41.22;23.02;;;;;;;6.12;68.26;100276.00;4946240;29;20063;-95
2020/12/06 13:49:56;;;;;;;;;;;;;;;;;;;;;
2020/12/06 13:53:14;;;;;;;43.67;23.98;;;;;;;6.25;67.99;100260.94;4961631;29;20197;-95
2020/12/06 13:56:16;;;;;;;;;;;;;;;;;;;;;
2020/12/06 13:59:39;;;;;;;44.25;24.00;;;;;;;6.42;68.02;100266.00;4950151;29;20430;-93
2020/12/06 14:02:45;;;;;;;;;;;;;;;;;;;;;
2020/12/06 14:06:15;;;;;;;;;;;;;;;;;;;;;
2020/12/06 14:09:07;;;;;;;40.60;24.63;;;;;;;6.58;68.10;100276.34;4924517;29;20504;-93
2020/12/06 14:11:52;;;;;;;42.05;24.67;;;;;;;6.61;67.99;100277.16;4994759;28;20046;-94
2020/12/06 14:18:08;;;;;;;38.80;23.40;;;;;;;6.72;67.91;100266.50;4960332;29;20066;-96
2020/12/06 14:20:51;;;;;;;37.80;23.23;;;;;;;6.80;67.53;100269.03;4973944;28;20049;-92
2020/12/06 14:24:08;;;;;;;39.10;22.77;;;;;;;6.80;67.80;100277.81;4994177;28;20475;-94
2020/12/06 14:30:17;;;;;;;42.75;25.15;;;;;;;6.87;67.54;100261.94;4941834;29;20129;-94
2020/12/06 14:33:17;;;;;;;39.30;22.98;;;;;;;6.88;67.32;100269.81;5051835;28;20041;-91
2020/12/06 14:36:01;;;;;;;40.17;25.33;;;;;;;6.86;67.82;100260.19;5040437;28;20024;-94
2020/12/06 14:39:02;;;;;;;38.70;24.17;;;;;;;6.80;67.95;100248.84;5054955;28;20078;-91